Time;durP1;ratioP1;P1;durP2;ratioP2;P2;SDS_P1;SDS_P2;PMS_P1;PMS_P2;Temp;Humidity;BMP_temperature;BMP_pressure;BME280_temperature;BME280_humidity;BME280_pressure;Samples;Min_cycle;Max_cycle;Signal;HPM_P1;HPM_P2
2024/04/10 00:01:06;;;;;;;3.00;1.27;;;16.60;93.00;;;;;;5402075;26;20483;-46
2024/04/10 00:03:34;;;;;;;2.73;1.00;;;16.60;93.00;;;;;;5383876;26;20830;-47
2024/04/10 00:06:08;;;;;;;2.70;0.90;;;16.60;93.00;;;;;;5414217;26;20516;-46
2024/04/10 00:08:36;;;;;;;3.93;1.23;;;16.60;93.00;;;;;;5414234;26;21004;-46
2024/04/10 00:11:06;;;;;;;2.80;1.23;;;16.60;93.10;;;;;;5403916;26;20456;-46
2024/04/10 00:13:34;;;;;;;1.70;1.17;;;16.60;93.10;;;;;;5402984;26;20875;-46
2024/04/10 00:16:06;;;;;;;3.83;1.20;;;16.60;93.00;;;;;;5405279;26;20452;-47
2024/04/10 00:18:35;;;;;;;2.77;1.03;;;16.60;93.10;;;;;;5411650;26;20452;-48
2024/04/10 00:21:08;;;;;;;3.80;1.20;;;16.60;93.10;;;;;;5393069;26;20474;-47
2024/04/10 00:23:35;;;;;;;2.13;0.90;;;16.50;92.90;;;;;;5401146;26;20525;-46
2024/04/10 00:26:06;;;;;;;1.90;0.70;;;16.50;92.80;;;;;;5381658;26;20928;-46
2024/04/10 00:28:33;;;;;;;2.37;0.93;;;16.50;93.00;;;;;;5379942;26;20466;-47
2024/04/10 00:32:51;;;;;;;2.73;1.00;;;16.50;92.90;;;;;;5542016;25;20651;-46
2024/04/10 00:35:18;;;;;;;3.90;1.37;;;16.50;92.90;;;;;;5517596;25;20550;-47
2024/04/10 00:37:48;;;;;;;1.70;0.83;;;16.50;93.00;;;;;;5498712;25;20785;-46
2024/04/10 00:40:16;;;;;;;6.17;1.30;;;16.50;93.10;;;;;;5497082;25;20449;-46
2024/04/10 00:42:46;;;;;;;3.13;1.50;;;16.50;93.20;;;;;;5500190;25;20468;-47
2024/04/10 00:45:13;;;;;;;2.43;1.10;;;16.50;93.20;;;;;;5503518;25;20504;-46
2024/04/10 00:47:43;;;;;;;1.30;0.83;;;16.50;92.80;;;;;;5502798;26;20457;-47
2024/04/10 00:50:13;;;;;;;2.23;1.00;;;16.50;92.90;;;;;;5482650;26;20445;-47
2024/04/10 00:52:43;;;;;;;1.67;0.83;;;16.50;92.90;;;;;;5495112;25;20522;-46
2024/04/10 00:55:15;;;;;;;3.73;1.63;;;16.50;93.10;;;;;;5491558;26;20893;-47
2024/04/10 00:57:45;;;;;;;3.20;1.13;;;16.50;93.30;;;;;;5482613;25;20472;-47
2024/04/10 01:00:13;;;;;;;6.50;0.90;;;16.50;93.00;;;;;;5496434;25;20512;-47
2024/04/10 01:02:43;;;;;;;2.27;1.00;;;16.50;93.00;;;;;;5501007;26;20515;-47
2024/04/10 01:05:13;;;;;;;2.50;1.30;;;16.40;92.90;;;;;;5490348;26;20437;-47
2024/04/10 01:07:46;;;;;;;5.10;1.07;;;16.40;93.10;;;;;;5494984;25;20574;-47
2024/04/10 01:10:13;;;;;;;2.73;0.80;;;16.50;93.10;;;;;;5494329;26;20457;-47
2024/04/10 01:12:45;;;;;;;3.43;1.00;;;16.40;93.10;;;;;;5497609;26;20570;-47
2024/04/10 01:15:15;;;;;;;3.83;1.40;;;16.40;93.10;;;;;;5490531;26;20441;-47
2024/04/10 01:17:42;;;;;;;2.50;0.80;;;16.40;93.10;;;;;;5498931;25;20464;-47
2024/04/10 01:20:15;;;;;;;1.93;0.90;;;16.40;93.20;;;;;;5481804;26;20536;-47
2024/04/10 01:22:43;;;;;;;6.27;1.40;;;16.40;93.10;;;;;;5500828;25;20445;-47
2024/04/10 01:25:16;;;;;;;2.30;0.73;;;16.40;92.90;;;;;;5492862;25;20497;-47
2024/04/10 01:27:43;;;;;;;2.80;1.17;;;16.40;93.20;;;;;;5494148;26;20468;-47
2024/04/10 01:30:13;;;;;;;2.23;1.00;;;16.40;93.00;;;;;;5497229;25;20444;-47
2024/04/10 01:32:40;;;;;;;2.30;1.00;;;16.40;93.20;;;;;;5501686;25;20582;-46
2024/04/10 01:35:10;;;;;;;3.10;1.00;;;16.40;93.40;;;;;;5489023;26;20444;-47
2024/04/10 01:37:38;;;;;;;3.30;1.40;;;16.40;93.40;;;;;;5487920;25;20526;-47
2024/04/10 01:40:08;;;;;;;4.60;1.20;;;16.40;93.40;;;;;;5497511;26;20536;-47
2024/04/10 01:42:44;;;;;;;2.23;0.80;;;16.40;93.40;;;;;;5492853;25;20518;-47
2024/04/10 01:45:13;;;;;;;2.80;1.17;;;16.30;93.50;;;;;;5474601;26;20453;-47
2024/04/10 01:47:41;;;;;;;3.03;1.10;;;16.30;93.50;;;;;;5487428;26;21011;-48
2024/04/10 01:50:11;;;;;;;2.30;1.07;;;16.40;93.50;;;;;;5474175;26;20827;-48
2024/04/10 01:52:38;;;;;;;2.80;1.17;;;16.30;93.50;;;;;;5479128;26;20534;-47
2024/04/10 01:55:10;;;;;;;2.23;1.00;;;16.30;93.40;;;;;;5486953;26;21018;-48
2024/04/10 01:57:40;;;;;;;4.43;0.90;;;16.30;93.30;;;;;;5484622;26;20881;-47
2024/04/10 02:00:11;;;;;;;3.20;1.40;;;16.40;93.50;;;;;;5472905;26;20467;-47
2024/04/10 02:02:39;;;;;;;2.13;0.90;;;16.30;93.50;;;;;;5483406;26;20839;-48
2024/04/10 02:05:09;;;;;;;1.63;0.90;;;16.30;93.50;;;;;;5502237;26;20459;-48
2024/04/10 02:07:36;;;;;;;2.27;1.17;;;16.30;93.30;;;;;;5484922;26;20506;-47
2024/04/10 02:10:06;;;;;;;2.90;1.20;;;16.30;93.60;;;;;;5486097;26;20524;-47
2024/04/10 02:12:34;;;;;;;2.13;1.13;;;16.30;93.40;;;;;;5482489;26;20657;-48
2024/04/10 02:15:06;;;;;;;3.20;1.00;;;16.30;93.60;;;;;;5484862;26;20467;-48
2024/04/10 02:17:34;;;;;;;5.27;1.63;;;16.30;93.50;;;;;;5481542;26;20944;-47
2024/04/10 02:20:05;;;;;;;3.30;1.20;;;16.30;93.60;;;;;;5481680;26;20565;-47
2024/04/10 02:22:33;;;;;;;3.83;1.20;;;16.20;93.50;;;;;;5475295;26;20457;-49
2024/04/10 02:25:04;;;;;;;1.40;0.80;;;16.20;93.40;;;;;;5482003;26;20459;-48
2024/04/10 02:27:31;;;;;;;3.80;1.47;;;16.30;93.40;;;;;;5478491;26;20453;-51
2024/04/10 02:30:01;;;;;;;2.70;1.20;;;16.20;93.50;;;;;;5485350;26;21045;-48
2024/04/10 02:32:31;;;;;;;3.70;1.07;;;16.20;93.70;;;;;;5485805;26;21002;-49
2024/04/10 02:35:01;;;;;;;1.93;0.83;;;16.30;93.50;;;;;;5484457;26;21033;-49
2024/04/10 02:37:28;;;;;;;3.13;1.30;;;16.20;93.50;;;;;;5473399;26;20520;-49
2024/04/10 02:39:58;;;;;;;4.27;1.17;;;16.20;93.60;;;;;;5487172;26;20556;-47
2024/04/10 02:42:26;;;;;;;2.17;0.90;;;16.20;93.50;;;;;;5487060;26;20505;-47
2024/04/10 02:44:55;;;;;;;3.27;0.97;;;16.20;93.50;;;;;;5482586;26;20463;-48
2024/04/10 02:47:22;;;;;;;2.10;1.20;;;16.20;93.70;;;;;;5483936;26;21037;-47
2024/04/10 02:49:55;;;;;;;2.03;1.10;;;16.20;93.50;;;;;;5487183;26;20513;-47
2024/04/10 02:52:23;;;;;;;6.20;1.20;;;16.20;93.50;;;;;;5487330;26;20943;-48
2024/04/10 02:54:52;;;;;;;2.37;1.20;;;16.20;93.50;;;;;;5478662;26;20470;-47
2024/04/10 02:57:20;;;;;;;2.30;0.90;;;16.10;93.50;;;;;;5481822;26;20457;-48
2024/04/10 02:59:49;;;;;;;3.43;0.97;;;16.10;93.60;;;;;;5483346;26;20506;-49
2024/04/10 03:02:17;;;;;;;2.50;0.80;;;16.10;93.60;;;;;;5485675;26;21025;-50
2024/04/10 03:04:46;;;;;;;1.63;0.80;;;16.20;93.70;;;;;;5484635;26;20513;-47
2024/04/10 03:07:16;;;;;;;2.20;0.97;;;16.10;93.70;;;;;;5484231;26;20517;-47
2024/04/10 03:09:46;;;;;;;3.20;1.20;;;16.10;93.70;;;;;;5486210;26;20461;-46
2024/04/10 03:12:14;;;;;;;2.03;1.03;;;16.10;93.60;;;;;;5475369;26;20513;-47
2024/04/10 03:14:45;;;;;;;1.87;0.90;;;16.20;94.20;;;;;;5481239;26;20846;-47
2024/04/10 03:17:13;;;;;;;4.53;1.47;;;16.10;93.80;;;;;;5473750;26;20471;-48
2024/04/10 03:19:43;;;;;;;3.47;0.90;;;16.10;93.60;;;;;;5487510;26;20505;-49
2024/04/10 03:22:10;;;;;;;3.17;0.80;;;16.10;93.60;;;;;;5472631;26;20502;-48
2024/04/10 03:24:42;;;;;;;3.40;1.10;;;16.10;93.60;;;;;;5482300;26;20515;-49
2024/04/10 03:27:10;;;;;;;3.10;1.10;;;16.10;93.60;;;;;;5475949;26;21054;-48
2024/04/10 03:29:39;;;;;;;2.53;1.00;;;16.10;93.60;;;;;;5477926;26;20532;-49
2024/04/10 03:32:07;;;;;;;3.43;1.10;;;16.10;93.70;;;;;;5485828;26;21131;-46
2024/04/10 03:34:37;;;;;;;3.70;1.47;;;16.10;93.70;;;;;;5484442;26;21014;-49
2024/04/10 03:37:04;;;;;;;2.20;1.00;;;16.10;93.50;;;;;;5481341;26;20950;-46
2024/04/10 03:39:34;;;;;;;2.33;0.80;;;16.00;93.60;;;;;;5478378;26;20461;-47
2024/04/10 03:42:05;;;;;;;3.27;1.00;;;16.00;93.90;;;;;;5484772;26;21020;-48
2024/04/10 03:44:35;;;;;;;2.90;1.17;;;16.00;93.70;;;;;;5483767;26;20450;-45
2024/04/10 03:47:07;;;;;;;1.73;0.77;;;16.00;93.80;;;;;;5486818;26;20802;-45
2024/04/10 03:49:38;;;;;;;2.60;1.17;;;16.00;93.80;;;;;;5486982;26;20465;-46
2024/04/10 03:52:06;;;;;;;2.53;1.20;;;16.00;93.80;;;;;;5475534;26;20782;-46
2024/04/10 03:54:36;;;;;;;2.83;1.00;;;16.00;93.90;;;;;;5472137;26;20577;-46
2024/04/10 03:57:05;;;;;;;2.60;1.10;;;16.00;93.90;;;;;;5450760;26;20565;-48
2024/04/10 03:59:35;;;;;;;3.37;1.10;;;16.00;93.90;;;;;;5451021;26;21006;-47
2024/04/10 04:02:03;;;;;;;2.37;1.00;;;16.00;93.80;;;;;;5450103;26;20548;-46
2024/04/10 04:04:33;;;;;;;2.60;1.30;;;16.00;93.90;;;;;;5450145;26;20936;-46
2024/04/10 04:07:01;;;;;;;2.50;1.17;;;16.00;93.90;;;;;;5449442;26;20466;-46
2024/04/10 04:09:31;;;;;;;2.40;1.57;;;16.00;93.70;;;;;;5450861;26;20466;-46
2024/04/10 04:11:59;;;;;;;2.23;0.90;;;15.90;93.80;;;;;;5452525;26;20556;-46
2024/04/10 04:14:32;;;;;;;2.87;1.30;;;15.90;93.80;;;;;;5449264;26;20848;-46
2024/04/10 04:17:00;;;;;;;3.13;1.43;;;16.00;94.00;;;;;;5450792;26;20455;-47
2024/04/10 04:19:30;;;;;;;2.93;0.90;;;16.00;94.00;;;;;;5451050;26;20515;-48
2024/04/10 04:21:57;;;;;;;2.50;1.10;;;16.00;94.00;;;;;;5451404;26;20822;-46
2024/04/10 04:24:28;;;;;;;2.87;1.00;;;15.90;93.90;;;;;;5450534;26;21015;-46
2024/04/10 04:26:56;;;;;;;2.43;0.90;;;15.90;93.90;;;;;;5465540;26;20453;-46
2024/04/10 04:29:26;;;;;;;3.23;1.10;;;15.90;94.10;;;;;;5471468;26;20522;-49
2024/04/10 04:31:56;;;;;;;5.20;1.40;;;15.90;93.90;;;;;;5464870;26;20474;-48
2024/04/10 04:34:26;;;;;;;3.00;1.47;;;15.90;93.80;;;;;;5450557;26;20862;-48
2024/04/10 04:36:53;;;;;;;2.97;1.20;;;15.90;94.00;;;;;;5450363;26;20972;-48
2024/04/10 04:39:23;;;;;;;7.00;1.53;;;15.90;94.00;;;;;;5476073;26;20462;-49
2024/04/10 04:41:50;;;;;;;4.33;1.10;;;15.90;93.70;;;;;;5465471;26;20884;-49
2024/04/10 04:44:20;;;;;;;3.10;1.00;;;15.80;94.40;;;;;;5462624;26;20805;-48
2024/04/10 04:46:50;;;;;;;3.63;1.20;;;15.90;94.00;;;;;;5451665;26;20515;-47
2024/04/10 04:49:23;;;;;;;1.43;0.80;;;15.80;94.00;;;;;;5463075;26;21007;-47
2024/04/10 04:51:50;;;;;;;4.13;1.03;;;15.90;94.10;;;;;;5449851;26;20463;-47
2024/04/10 04:54:20;;;;;;;2.27;0.90;;;15.80;94.00;;;;;;5470358;26;20880;-47
2024/04/10 04:56:47;;;;;;;1.47;0.80;;;15.80;94.10;;;;;;5455516;26;21019;-47
2024/04/10 04:59:17;;;;;;;2.20;0.93;;;15.80;94.10;;;;;;5449039;26;20924;-47
2024/04/10 05:01:47;;;;;;;2.10;0.70;;;15.80;94.10;;;;;;5449954;26;20454;-47
2024/04/10 05:07:08;;;;;;;2.63;1.43;;;15.80;94.50;;;;;;5452621;26;20515;-47
2024/04/10 05:09:37;;;;;;;2.30;1.00;;;15.80;94.10;;;;;;5476436;26;20509;-47
2024/04/10 05:12:05;;;;;;;1.87;0.80;;;15.80;94.10;;;;;;5465861;26;20514;-47
2024/04/10 05:14:35;;;;;;;2.27;0.90;;;15.80;94.10;;;;;;5449342;26;20463;-47
2024/04/10 05:17:03;;;;;;;2.63;1.00;;;15.80;94.00;;;;;;5450612;26;21085;-47
2024/04/10 05:19:33;;;;;;;1.87;0.70;;;15.70;94.00;;;;;;5462447;26;20526;-47
2024/04/10 05:22:00;;;;;;;1.50;0.90;;;15.80;94.00;;;;;;5463196;26;20522;-47
2024/04/10 05:24:33;;;;;;;2.57;1.40;;;15.80;94.00;;;;;;5453798;26;20511;-47
2024/04/10 05:27:04;;;;;;;1.63;0.90;;;15.80;94.20;;;;;;5454884;26;20451;-48
2024/04/10 05:29:33;;;;;;;2.90;1.40;;;15.70;94.10;;;;;;5459971;26;20574;-47
2024/04/10 05:32:02;;;;;;;6.40;1.30;;;15.70;94.00;;;;;;5466988;26;20466;-47
2024/04/10 05:34:32;;;;;;;2.80;0.93;;;15.70;93.90;;;;;;5453866;26;20458;-48
2024/04/10 05:36:59;;;;;;;2.07;0.70;;;15.70;94.00;;;;;;5453795;26;20468;-47
2024/04/10 05:39:33;;;;;;;1.40;0.73;;;15.70;94.20;;;;;;5453573;26;20466;-47
2024/04/10 05:42:06;;;;;;;4.13;0.90;;;15.70;94.00;;;;;;5453394;26;20458;-47
2024/04/10 05:44:36;;;;;;;4.10;1.77;;;15.70;94.10;;;;;;5460101;26;20556;-47
2024/04/10 05:47:04;;;;;;;1.80;0.90;;;15.70;94.20;;;;;;5454700;26;20461;-47
2024/04/10 05:49:34;;;;;;;3.43;0.97;;;15.70;94.30;;;;;;5451047;26;21141;-48
2024/04/10 05:52:01;;;;;;;1.63;1.07;;;15.70;94.20;;;;;;5452446;26;20573;-46
2024/04/10 05:54:34;;;;;;;2.90;0.97;;;15.60;94.10;;;;;;5453338;26;20499;-47
2024/04/10 05:57:01;;;;;;;2.60;0.93;;;15.70;94.20;;;;;;5453907;26;20475;-47
2024/04/10 05:59:31;;;;;;;2.70;1.53;;;15.70;94.00;;;;;;5455263;26;21031;-47
2024/04/10 06:01:58;;;;;;;4.07;0.90;;;15.70;94.50;;;;;;5466780;26;20858;-45
2024/04/10 06:04:28;;;;;;;4.10;1.00;;;15.70;94.10;;;;;;5452881;26;20495;-47
2024/04/10 06:06:56;;;;;;;4.27;1.13;;;15.60;94.10;;;;;;5456184;26;20943;-46
2024/04/10 06:09:25;;;;;;;3.70;1.47;;;15.60;94.10;;;;;;5453333;26;20925;-45
2024/04/10 06:11:55;;;;;;;3.00;1.13;;;15.60;94.00;;;;;;5453058;26;20552;-46
2024/04/10 06:14:28;;;;;;;2.63;0.90;;;15.60;94.00;;;;;;5452960;26;20478;-46
2024/04/10 06:16:56;;;;;;;3.73;1.50;;;15.60;94.10;;;;;;5465729;26;20461;-46
2024/04/10 06:19:25;;;;;;;2.40;1.13;;;15.60;93.90;;;;;;5462199;26;20459;-47
2024/04/10 06:21:53;;;;;;;2.73;1.23;;;15.60;94.00;;;;;;5452619;26;20801;-45
2024/04/10 06:24:23;;;;;;;2.67;0.90;;;15.60;94.20;;;;;;5462518;26;20528;-46
2024/04/10 06:26:50;;;;;;;1.63;0.80;;;15.60;94.20;;;;;;5457607;26;20470;-47
2024/04/10 06:29:23;;;;;;;2.17;0.97;;;15.60;94.30;;;;;;5464332;26;20815;-48
2024/04/10 06:31:50;;;;;;;2.07;1.20;;;15.50;94.10;;;;;;5456623;26;20463;-46
2024/04/10 06:34:20;;;;;;;3.30;1.50;;;15.50;94.00;;;;;;5460569;26;20457;-46
2024/04/10 06:36:47;;;;;;;3.33;0.93;;;15.50;93.80;;;;;;5457897;25;20475;-46
2024/04/10 06:39:17;;;;;;;6.90;1.80;;;15.60;93.90;;;;;;5452873;26;20544;-48
2024/04/10 06:41:44;;;;;;;3.80;1.13;;;15.50;93.90;;;;;;5453422;26;20515;-48
2024/04/10 06:44:14;;;;;;;2.47;1.17;;;15.50;93.80;;;;;;5463752;26;20871;-47
2024/04/10 06:46:45;;;;;;;2.03;1.20;;;15.50;93.90;;;;;;5452698;26;20455;-46
2024/04/10 06:49:16;;;;;;;3.87;1.43;;;15.60;93.70;;;;;;5461594;26;20559;-47
2024/04/10 06:51:44;;;;;;;2.70;1.40;;;15.50;93.40;;;;;;5464035;26;20447;-45
2024/04/10 06:54:14;;;;;;;2.30;1.00;;;15.50;93.50;;;;;;5467324;26;20467;-45
2024/04/10 06:56:46;;;;;;;3.80;1.33;;;15.60;93.80;;;;;;5455190;26;20906;-46
2024/04/10 06:59:17;;;;;;;3.20;1.20;;;15.60;93.90;;;;;;5451465;26;20482;-46
2024/04/10 07:01:47;;;;;;;2.90;1.10;;;15.60;94.10;;;;;;5487785;26;20481;-47
2024/04/10 07:04:17;;;;;;;2.17;1.10;;;15.60;94.20;;;;;;5470515;26;20462;-48
2024/04/10 07:06:45;;;;;;;2.07;0.97;;;15.60;94.20;;;;;;5452201;26;20881;-47
2024/04/10 07:09:15;;;;;;;3.10;1.10;;;15.60;94.30;;;;;;5464959;26;20514;-47
2024/04/10 07:11:42;;;;;;;2.03;0.90;;;15.60;94.30;;;;;;5452805;26;20495;-47
2024/04/10 07:14:13;;;;;;;1.57;1.00;;;15.60;94.30;;;;;;5451745;26;20499;-47
2024/04/10 07:16:42;;;;;;;1.43;1.03;;;15.60;94.40;;;;;;5455560;26;20459;-47
2024/04/10 07:19:14;;;;;;;1.47;0.80;;;15.70;94.40;;;;;;5452342;26;20458;-47
2024/04/10 07:21:41;;;;;;;2.20;0.83;;;15.60;94.40;;;;;;5453665;26;20517;-47
2024/04/10 07:24:11;;;;;;;1.80;1.00;;;15.70;94.40;;;;;;5468363;26;20459;-47
2024/04/10 07:26:39;;;;;;;2.37;1.20;;;15.60;94.30;;;;;;5463315;26;20441;-47
2024/04/10 07:29:11;;;;;;;2.20;1.20;;;15.70;94.30;;;;;;5454265;26;20805;-47
2024/04/10 07:31:39;;;;;;;1.77;0.73;;;15.60;94.30;;;;;;5452632;26;20575;-47
2024/04/10 07:34:14;;;;;;;2.63;1.10;;;15.60;94.40;;;;;;5452958;26;20459;-47
2024/04/10 07:36:44;;;;;;;1.83;1.00;;;15.60;94.90;;;;;;5458512;26;20453;-47
2024/04/10 07:39:19;;;;;;;2.23;0.60;;;15.70;94.40;;;;;;5452775;26;20488;-47
2024/04/10 07:41:46;;;;;;;2.00;1.00;;;15.60;94.40;;;;;;5449966;26;20564;-47
2024/04/10 07:44:18;;;;;;;1.97;0.90;;;15.60;94.50;;;;;;5460040;26;20530;-47
2024/04/10 07:46:46;;;;;;;2.30;0.80;;;15.60;94.50;;;;;;5453075;26;20580;-47
2024/04/10 07:49:17;;;;;;;2.10;0.93;;;15.60;94.50;;;;;;5465839;26;20854;-47
2024/04/10 07:51:47;;;;;;;2.30;1.10;;;15.60;94.50;;;;;;5452158;26;21090;-47
2024/04/10 07:54:17;;;;;;;4.57;1.10;;;15.60;94.40;;;;;;5465316;26;20478;-47
2024/04/10 07:56:44;;;;;;;1.87;1.13;;;15.60;94.50;;;;;;5460351;26;20519;-47
2024/04/10 07:59:14;;;;;;;3.00;1.20;;;15.60;94.50;;;;;;5462944;26;20570;-47
2024/04/10 08:01:42;;;;;;;1.47;1.07;;;15.60;94.50;;;;;;5451824;26;20454;-48
2024/04/10 08:04:12;;;;;;;2.50;1.33;;;15.60;94.40;;;;;;5465285;26;20786;-47
2024/04/10 08:06:40;;;;;;;4.10;1.40;;;15.60;94.40;;;;;;5450656;26;20544;-47
2024/04/10 08:09:13;;;;;;;2.63;0.93;;;15.60;93.80;;;;;;5454068;26;20593;-47
2024/04/10 08:11:40;;;;;;;3.50;0.87;;;15.60;94.00;;;;;;5458734;26;20459;-47
2024/04/10 08:14:10;;;;;;;4.30;1.70;;;15.60;94.40;;;;;;5451167;26;20357;-47
2024/04/10 08:16:38;;;;;;;3.43;1.40;;;15.50;93.20;;;;;;5462620;26;20247;-47
2024/04/10 08:19:08;;;;;;;1.57;0.90;;;15.50;93.90;;;;;;5453734;26;20832;-47
2024/04/10 08:21:36;;;;;;;2.57;1.20;;;15.50;94.00;;;;;;5452587;26;20467;-47
2024/04/10 08:24:07;;;;;;;2.20;0.80;;;15.50;93.90;;;;;;5453107;26;20856;-47
2024/04/10 08:26:38;;;;;;;2.57;1.10;;;15.50;93.80;;;;;;5455881;26;20462;-48
2024/04/10 08:29:09;;;;;;;2.77;1.47;;;15.50;93.80;;;;;;5452578;26;21105;-47
2024/04/10 08:31:37;;;;;;;3.50;1.40;;;15.50;93.70;;;;;;5458559;26;20458;-47
2024/04/10 08:34:07;;;;;;;4.20;1.10;;;15.50;93.80;;;;;;5453340;26;20458;-47
2024/04/10 08:36:36;;;;;;;1.27;0.83;;;15.50;93.80;;;;;;5451749;26;20518;-47
2024/04/10 08:39:06;;;;;;;2.40;1.20;;;15.50;93.80;;;;;;5456132;26;20568;-48
2024/04/10 08:41:34;;;;;;;2.70;1.40;;;15.50;93.80;;;;;;5459974;26;21011;-48
2024/04/10 08:44:07;;;;;;;4.23;1.00;;;15.50;93.70;;;;;;5452289;26;20588;-48
2024/04/10 08:46:37;;;;;;;2.57;0.90;;;15.50;93.90;;;;;;5452048;26;20470;-48
2024/04/10 08:49:09;;;;;;;3.50;1.00;;;15.50;94.00;;;;;;5457547;26;20461;-48
2024/04/10 08:51:39;;;;;;;2.10;1.20;;;15.50;94.00;;;;;;5452533;26;20506;-47
2024/04/10 08:54:10;;;;;;;2.30;1.10;;;15.50;93.80;;;;;;5462739;26;20518;-48
2024/04/10 08:56:37;;;;;;;1.80;1.13;;;15.50;93.90;;;;;;5477625;26;20518;-48
2024/04/10 08:59:10;;;;;;;1.90;1.13;;;15.50;94.00;;;;;;5465911;26;20493;-48
2024/04/10 09:01:37;;;;;;;2.80;0.87;;;15.40;93.90;;;;;;5455106;26;21015;-47
2024/04/10 09:04:10;;;;;;;3.00;1.10;;;15.40;94.00;;;;;;5464622;26;20543;-47
2024/04/10 09:06:39;;;;;;;1.90;1.20;;;15.40;94.00;;;;;;5462391;26;20478;-47
2024/04/10 09:09:09;;;;;;;3.07;1.47;;;15.40;94.00;;;;;;5467377;26;20803;-48
2024/04/10 09:11:38;;;;;;;2.87;1.60;;;15.40;93.80;;;;;;5463747;26;20458;-48
2024/04/10 09:14:14;;;;;;;2.60;1.10;;;15.40;94.00;;;;;;5462402;26;20502;-47
2024/04/10 09:16:42;;;;;;;1.97;1.23;;;15.40;93.80;;;;;;5456159;26;20791;-47
2024/04/10 09:19:13;;;;;;;1.87;0.93;;;15.40;93.90;;;;;;5456041;26;20474;-48
2024/04/10 09:21:42;;;;;;;2.27;1.10;;;15.40;94.00;;;;;;5455261;26;20530;-47
2024/04/10 09:24:13;;;;;;;2.30;1.33;;;15.50;94.10;;;;;;5468131;26;20463;-49
2024/04/10 09:26:43;;;;;;;1.60;0.73;;;15.40;94.00;;;;;;5466771;26;20465;-49
2024/04/10 09:29:18;;;;;;;1.83;1.20;;;15.40;94.60;;;;;;5474935;26;20461;-47
2024/04/10 09:31:48;;;;;;;1.77;0.90;;;15.40;93.80;;;;;;5475918;26;20509;-48
2024/04/10 09:34:21;;;;;;;1.90;0.70;;;15.50;94.00;;;;;;5468504;26;20451;-47
2024/04/10 09:36:49;;;;;;;1.50;0.93;;;15.40;94.00;;;;;;5461781;26;20500;-47
2024/04/10 09:39:22;;;;;;;2.00;0.90;;;15.50;94.00;;;;;;5466798;26;20523;-48
2024/04/10 09:41:55;;;;;;;1.37;1.00;;;15.50;94.10;;;;;;5456185;26;20889;-47
2024/04/10 09:44:33;;;;;;;1.80;1.10;;;15.50;94.00;;;;;;5455806;26;20806;-47
2024/04/10 09:47:01;;;;;;;2.30;0.90;;;15.50;94.10;;;;;;5459655;26;20458;-48
2024/04/10 09:49:48;;;;;;;3.17;1.80;;;15.50;94.10;;;;;;5455195;26;20525;-47
2024/04/10 09:52:15;;;;;;;1.63;1.10;;;15.40;94.00;;;;;;5456868;26;20462;-48
2024/04/10 09:54:46;;;;;;;3.70;1.30;;;15.40;93.90;;;;;;5453575;26;20506;-51
2024/04/10 09:57:16;;;;;;;3.90;1.88;;;15.40;94.00;;;;;;5454491;26;20346;-48
2024/04/10 09:59:48;;;;;;;6.70;1.90;;;15.50;93.20;;;;;;5454305;26;20591;-50
2024/04/10 10:02:17;;;;;;;6.10;1.87;;;15.50;90.70;;;;;;5458016;26;20518;-47
2024/04/10 10:04:48;;;;;;;10.07;2.00;;;15.60;90.90;;;;;;5454676;26;20515;-47
2024/04/10 10:07:22;;;;;;;2.80;2.23;;;15.60;88.80;;;;;;5455639;26;20518;-48
2024/04/10 10:09:52;;;;;;;4.13;1.73;;;15.60;87.70;;;;;;5456643;26;21229;-47
2024/04/10 10:12:28;;;;;;;3.47;1.73;;;15.60;88.80;;;;;;5466534;26;20458;-47
2024/04/10 10:15:11;;;;;;;4.50;1.97;;;15.60;86.40;;;;;;5454439;26;21079;-48
2024/04/10 10:17:40;;;;;;;3.57;1.50;;;15.60;87.90;;;;;;5455618;26;20877;-47
2024/04/10 10:20:26;;;;;;;4.40;1.80;;;15.60;81.90;;;;;;5469921;26;20466;-47
2024/04/10 10:22:58;;;;;;;3.60;1.80;;;15.70;83.30;;;;;;5456558;26;20515;-47
2024/04/10 10:25:28;;;;;;;3.80;1.53;;;15.60;85.00;;;;;;5460852;26;20486;-46
2024/04/10 10:28:09;;;;;;;3.80;1.80;;;15.60;85.00;;;;;;5455938;26;20451;-46
2024/04/10 10:30:42;;;;;;;2.60;1.53;;;15.60;85.20;;;;;;5454680;26;21031;-47
2024/04/10 10:33:12;;;;;;;4.30;1.27;;;15.60;82.50;;;;;;5465647;26;20510;-49
2024/04/10 10:35:45;;;;;;;6.27;1.73;;;15.60;81.50;;;;;;5453092;26;20522;-48
2024/04/10 10:38:12;;;;;;;4.80;1.77;;;15.60;79.40;;;;;;5464010;26;20455;-49
2024/04/10 10:40:43;;;;;;;3.30;1.50;;;15.60;81.70;;;;;;5456924;26;21038;-47
2024/04/10 10:43:11;;;;;;;4.33;1.70;;;15.60;81.80;;;;;;5454481;26;20469;-46
2024/04/10 10:45:45;;;;;;;2.73;1.27;;;15.60;84.40;;;;;;5459588;26;20518;-47
2024/04/10 10:48:15;;;;;;;6.40;1.90;;;15.60;80.50;;;;;;5479609;26;20459;-46
2024/04/10 10:50:45;;;;;;;4.00;1.27;;;15.60;79.90;;;;;;5454887;26;20518;-47
2024/04/10 10:53:14;;;;;;;2.37;1.70;;;15.60;79.20;;;;;;5458444;26;20471;-47
2024/04/10 10:55:53;;;;;;;5.20;1.73;;;15.60;79.00;;;;;;5455493;26;20459;-47
2024/04/10 10:58:21;;;;;;;3.00;1.67;;;15.60;80.30;;;;;;5454476;26;20506;-46
2024/04/10 11:00:56;;;;;;;3.40;1.87;;;15.60;77.90;;;;;;5456504;26;20910;-46
2024/04/10 11:03:26;;;;;;;3.13;1.77;;;15.60;77.40;;;;;;5455166;26;20472;-46
2024/04/10 11:06:09;;;;;;;3.43;1.87;;;15.60;75.40;;;;;;5456666;26;20813;-47
2024/04/10 11:08:37;;;;;;;5.33;1.53;;;15.60;79.40;;;;;;5472101;26;20672;-49
2024/04/10 11:11:07;;;;;;;4.23;1.53;;;15.60;76.10;;;;;;5458965;26;20536;-47
2024/04/10 11:13:47;;;;;;;3.10;1.50;;;15.60;78.80;;;;;;5464161;26;20599;-48
2024/04/10 11:16:31;;;;;;;8.50;1.77;;;15.70;80.40;;;;;;5464778;26;20458;-48
2024/04/10 11:18:59;;;;;;;3.20;1.20;;;15.60;80.20;;;;;;5456966;26;20505;-46
2024/04/10 11:21:29;;;;;;;3.70;1.87;;;15.60;80.50;;;;;;5453981;26;20886;-48
2024/04/10 11:23:56;;;;;;;3.73;2.10;;;15.60;79.00;;;;;;5457074;26;20569;-46
2024/04/10 11:26:27;;;;;;;2.93;1.57;;;15.60;79.80;;;;;;5461475;26;20985;-49
2024/04/10 11:28:55;;;;;;;4.50;2.53;;;15.60;79.40;;;;;;5475335;26;20453;-47
2024/04/10 11:31:27;;;;;;;3.47;1.30;;;15.60;80.70;;;;;;5489248;26;20522;-47
2024/04/10 11:33:55;;;;;;;6.10;1.80;;;15.60;79.20;;;;;;5475930;26;20816;-47
2024/04/10 11:36:25;;;;;;;2.60;1.33;;;15.60;80.20;;;;;;5484122;26;20497;-45
2024/04/10 11:38:52;;;;;;;3.53;1.40;;;15.60;80.40;;;;;;5485052;26;20513;-47
2024/04/10 11:41:23;;;;;;;6.03;1.80;;;15.60;79.50;;;;;;5471204;26;20466;-47
2024/04/10 11:43:50;;;;;;;3.73;1.77;;;15.60;80.00;;;;;;5460490;26;20471;-45
2024/04/10 11:46:21;;;;;;;3.70;1.93;;;15.60;79.90;;;;;;5467798;26;20446;-45
2024/04/10 11:48:51;;;;;;;1.77;1.10;;;15.60;74.40;;;;;;5456196;26;20462;-46
2024/04/10 11:51:21;;;;;;;4.27;1.60;;;15.60;77.30;;;;;;5466627;26;21019;-46
2024/04/10 11:53:48;;;;;;;5.07;1.50;;;15.60;78.30;;;;;;5465891;26;20570;-46
2024/04/10 11:56:21;;;;;;;3.70;1.47;;;15.60;74.40;;;;;;5457672;26;20459;-45
2024/04/10 11:58:49;;;;;;;2.30;1.30;;;15.60;73.70;;;;;;5454882;26;20522;-46
2024/04/10 12:01:19;;;;;;;2.50;1.13;;;15.60;75.10;;;;;;5465743;26;20447;-46
2024/04/10 12:03:46;;;;;;;3.13;1.57;;;15.60;72.70;;;;;;5468041;26;21088;-48
2024/04/10 12:06:19;;;;;;;2.90;1.50;;;15.60;74.50;;;;;;5454009;26;20471;-47
2024/04/10 12:08:47;;;;;;;4.50;1.73;;;15.60;75.70;;;;;;5455607;26;20634;-47
2024/04/10 12:11:17;;;;;;;1.50;1.13;;;15.60;76.00;;;;;;5473681;26;21079;-46
2024/04/10 12:13:45;;;;;;;3.77;2.13;;;15.60;77.10;;;;;;5460981;26;20470;-45
2024/04/10 12:16:15;;;;;;;4.70;1.10;;;15.70;76.30;;;;;;5454021;26;20462;-46
2024/04/10 12:18:42;;;;;;;3.93;1.67;;;15.70;76.10;;;;;;5463545;26;20803;-47
2024/04/10 12:21:12;;;;;;;2.10;1.07;;;15.60;76.70;;;;;;5464897;26;20450;-47
2024/04/10 12:23:43;;;;;;;6.23;1.50;;;15.60;76.20;;;;;;5461353;26;20458;-47
2024/04/10 12:26:14;;;;;;;2.47;1.10;;;15.60;75.20;;;;;;5456066;26;20531;-47
2024/04/10 12:28:41;;;;;;;2.23;1.43;;;15.60;75.20;;;;;;5481095;26;20510;-48
2024/04/10 12:31:12;;;;;;;2.93;0.97;;;15.70;75.50;;;;;;5484897;26;20993;-48
2024/04/10 12:33:39;;;;;;;3.30;1.40;;;15.60;75.10;;;;;;5487080;26;21041;-46
2024/04/10 12:38:58;;;;;;;3.27;1.27;;;15.70;75.80;;;;;;5477795;26;21085;-51
2024/04/10 12:41:28;;;;;;;6.03;1.20;;;15.70;74.50;;;;;;5463099;26;20469;-47
2024/04/10 12:43:58;;;;;;;3.43;1.27;;;15.70;72.60;;;;;;5482587;26;20461;-48
2024/04/10 12:46:30;;;;;;;2.70;1.13;;;15.70;74.30;;;;;;5482855;26;20453;-48
2024/04/10 12:48:57;;;;;;;4.37;1.50;;;15.70;73.70;;;;;;5481456;26;20457;-47
2024/04/10 12:51:28;;;;;;;2.30;1.10;;;15.70;74.60;;;;;;5484533;26;20524;-49
2024/04/10 12:53:58;;;;;;;3.40;1.50;;;15.70;74.90;;;;;;5481578;26;20461;-48
2024/04/10 12:56:28;;;;;;;3.67;1.23;;;15.70;74.60;;;;;;5484704;26;21116;-48
2024/04/10 12:58:55;;;;;;;2.90;1.50;;;15.70;73.30;;;;;;5483683;26;20457;-48
2024/04/10 13:01:26;;;;;;;1.93;1.13;;;15.70;73.10;;;;;;5481011;26;21089;-45
2024/04/10 13:03:54;;;;;;;1.70;1.00;;;15.70;73.60;;;;;;5472303;26;20458;-48
2024/04/10 13:06:24;;;;;;;4.17;1.47;;;15.70;74.70;;;;;;5465729;26;20463;-47
2024/04/10 13:08:52;;;;;;;2.70;1.60;;;15.70;75.40;;;;;;5454860;26;20447;-48